CheckWX is a tool to help pilots better visualize weather data.  It is not intended as a substitute for an official pre-flight weather briefing.

21:32:33 UTC

KCOU TAF
Columbia Regional Airport
Columbia, Missouri, USA
KCOU 201934Z 2020/2118 14010KT P6SM FEW020 FM210700 15008KT 5SM -SHRA VCTS OVC035CB FM211000 18006KT P6SM BKN025 FM211200 21006KT P6SM SCT030 FM211400 25014G24KT P6SM FEW250

Oct-20@
20:00 UTC

Oct-20 @ 20:00 UTC

Oct-21@
07:00 UTC

Oct-21 @ 07:00 UTC

KCOU 201934Z 2020/2118 14010KT P6SM FEW020
Wind
  • 140° at 10 KTS
Cloud Levels
  • Few at 2,000' AGL

Oct-21@
07:00 UTC

Oct-21 @ 07:00 UTC

Oct-21@
10:00 UTC

Oct-21 @ 10:00 UTC

FM210700 15008KT 5SM -SHRA VCTS OVC035CB

From

From Standard forecast or significant change

Wind
  • 150° at 8 KTS
Conditions
Light Rain, Area Thunderstorm
Cloud Levels
  • Overcast at 3,500' AGL

Oct-21@
10:00 UTC

Oct-21 @ 10:00 UTC

Oct-21@
12:00 UTC

Oct-21 @ 12:00 UTC

FM211000 18006KT P6SM BKN025

From

From Standard forecast or significant change

Wind
  • 180° at 6 KTS
Cloud Levels
  • Broken at 2,500' AGL

Oct-21@
12:00 UTC

Oct-21 @ 12:00 UTC

Oct-21@
14:00 UTC

Oct-21 @ 14:00 UTC

FM211200 21006KT P6SM SCT030

From

From Standard forecast or significant change

Wind
  • 210° at 6 KTS
Cloud Levels
  • Scattered at 3,000' AGL

Oct-21@
14:00 UTC

Oct-21 @ 14:00 UTC

Oct-21@
18:00 UTC

Oct-21 @ 18:00 UTC

FM211400 25014G24KT P6SM FEW250

From

From Standard forecast or significant change

Wind
  • 250° at 14 KTS
  • {Gusting to 24 KTS
Cloud Levels
  • Few at 25,000' AGL